sensor_id;sensor_type;location;lat;lon;timestamp;temperature;humidity
68098;DHT22;54886;47.036;15.466;2023-09-19T00:00:22;20.55;81.46
68098;DHT22;54886;47.036;15.466;2023-09-19T00:02:58;20.48;81.62
68098;DHT22;54886;47.036;15.466;2023-09-19T00:05:27;20.51;81.06
68098;DHT22;54886;47.036;15.466;2023-09-19T00:07:55;20.47;82.08
68098;DHT22;54886;47.036;15.466;2023-09-19T00:10:24;20.43;82.49
68098;DHT22;54886;47.036;15.466;2023-09-19T00:12:53;20.43;81.77
68098;DHT22;54886;47.036;15.466;2023-09-19T00:15:23;20.44;80.80
68098;DHT22;54886;47.036;15.466;2023-09-19T00:17:48;20.43;80.94
68098;DHT22;54886;47.036;15.466;2023-09-19T00:20:14;20.41;81.44
68098;DHT22;54886;47.036;15.466;2023-09-19T00:22:43;20.43;80.81
68098;DHT22;54886;47.036;15.466;2023-09-19T00:25:08;20.43;81.42
68098;DHT22;54886;47.036;15.466;2023-09-19T00:27:39;20.36;81.96
68098;DHT22;54886;47.036;15.466;2023-09-19T00:30:06;20.41;81.13
68098;DHT22;54886;47.036;15.466;2023-09-19T00:32:34;20.40;81.44
68098;DHT22;54886;47.036;15.466;2023-09-19T00:34:59;20.37;81.64
68098;DHT22;54886;47.036;15.466;2023-09-19T00:37:25;20.34;81.41
68098;DHT22;54886;47.036;15.466;2023-09-19T00:39:50;20.39;81.54
68098;DHT22;54886;47.036;15.466;2023-09-19T00:42:19;20.37;81.50
68098;DHT22;54886;47.036;15.466;2023-09-19T00:44:47;20.31;82.13
68098;DHT22;54886;47.036;15.466;2023-09-19T00:47:19;20.33;81.80
68098;DHT22;54886;47.036;15.466;2023-09-19T00:49:45;20.33;81.20
68098;DHT22;54886;47.036;15.466;2023-09-19T00:52:16;20.31;82.02
68098;DHT22;54886;47.036;15.466;2023-09-19T00:54:45;20.33;81.07
68098;DHT22;54886;47.036;15.466;2023-09-19T00:57:11;20.30;82.42
68098;DHT22;54886;47.036;15.466;2023-09-19T00:59:36;20.29;81.15
68098;DHT22;54886;47.036;15.466;2023-09-19T01:02:02;20.31;81.13
68098;DHT22;54886;47.036;15.466;2023-09-19T01:04:29;20.29;81.59
68098;DHT22;54886;47.036;15.466;2023-09-19T01:06:54;20.30;81.23
68098;DHT22;54886;47.036;15.466;2023-09-19T01:09:20;20.30;80.65
68098;DHT22;54886;47.036;15.466;2023-09-19T01:11:49;20.31;81.17
68098;DHT22;54886;47.036;15.466;2023-09-19T01:14:29;20.29;80.97
68098;DHT22;54886;47.036;15.466;2023-09-19T01:17:15;20.27;82.21
68098;DHT22;54886;47.036;15.466;2023-09-19T01:30:27;20.23;81.84
68098;DHT22;54886;47.036;15.466;2023-09-19T01:32:54;20.23;81.44
68098;DHT22;54886;47.036;15.466;2023-09-19T01:35:20;20.20;81.90
68098;DHT22;54886;47.036;15.466;2023-09-19T01:37:45;20.17;82.42
68098;DHT22;54886;47.036;15.466;2023-09-19T01:40:13;20.16;82.03
68098;DHT22;54886;47.036;15.466;2023-09-19T01:45:58;20.16;81.89
68098;DHT22;54886;47.036;15.466;2023-09-19T01:51:31;20.19;80.72
68098;DHT22;54886;47.036;15.466;2023-09-19T01:54:09;20.16;82.21
68098;DHT22;54886;47.036;15.466;2023-09-19T01:57:04;20.12;82.03
68098;DHT22;54886;47.036;15.466;2023-09-19T01:59:50;20.09;82.04
68098;DHT22;54886;47.036;15.466;2023-09-19T02:02:18;20.10;82.26
68098;DHT22;54886;47.036;15.466;2023-09-19T02:04:47;20.09;82.13
68098;DHT22;54886;47.036;15.466;2023-09-19T02:07:13;20.09;81.40
68098;DHT22;54886;47.036;15.466;2023-09-19T02:09:42;20.10;81.65
68098;DHT22;54886;47.036;15.466;2023-09-19T02:12:09;20.12;81.01
68098;DHT22;54886;47.036;15.466;2023-09-19T02:14:34;20.09;82.18
68098;DHT22;54886;47.036;15.466;2023-09-19T02:17:02;20.09;82.18
68098;DHT22;54886;47.036;15.466;2023-09-19T02:19:30;20.05;81.75
68098;DHT22;54886;47.036;15.466;2023-09-19T02:21:57;20.02;81.42
68098;DHT22;54886;47.036;15.466;2023-09-19T02:24:22;20.08;81.49
68098;DHT22;54886;47.036;15.466;2023-09-19T02:26:52;20.03;81.32
68098;DHT22;54886;47.036;15.466;2023-09-19T02:29:17;20.05;80.70
68098;DHT22;54886;47.036;15.466;2023-09-19T02:31:43;20.00;81.99
68098;DHT22;54886;47.036;15.466;2023-09-19T02:34:08;20.00;80.94
68098;DHT22;54886;47.036;15.466;2023-09-19T02:36:34;19.99;80.75
68098;DHT22;54886;47.036;15.466;2023-09-19T02:38:59;20.02;79.56
68098;DHT22;54886;47.036;15.466;2023-09-19T02:41:25;20.00;79.55
68098;DHT22;54886;47.036;15.466;2023-09-19T02:43:50;19.96;79.47
68098;DHT22;54886;47.036;15.466;2023-09-19T02:46:16;20.02;79.80
68098;DHT22;54886;47.036;15.466;2023-09-19T02:48:42;20.00;79.52
68098;DHT22;54886;47.036;15.466;2023-09-19T02:51:07;20.03;79.26
68098;DHT22;54886;47.036;15.466;2023-09-19T02:53:32;20.03;79.17
68098;DHT22;54886;47.036;15.466;2023-09-19T02:55:58;19.96;79.58
68098;DHT22;54886;47.036;15.466;2023-09-19T02:58:24;19.97;79.84
68098;DHT22;54886;47.036;15.466;2023-09-19T03:00:50;19.97;79.91
68098;DHT22;54886;47.036;15.466;2023-09-19T03:03:17;19.96;80.00
68098;DHT22;54886;47.036;15.466;2023-09-19T03:05:43;19.92;80.61
68098;DHT22;54886;47.036;15.466;2023-09-19T03:08:13;19.89;80.98
68098;DHT22;54886;47.036;15.466;2023-09-19T03:10:40;19.89;80.42
68098;DHT22;54886;47.036;15.466;2023-09-19T03:13:05;19.85;80.39
68098;DHT22;54886;47.036;15.466;2023-09-19T03:15:33;19.81;81.45
68098;DHT22;54886;47.036;15.466;2023-09-19T03:17:59;19.81;81.08
68098;DHT22;54886;47.036;15.466;2023-09-19T03:20:24;19.79;80.62
68098;DHT22;54886;47.036;15.466;2023-09-19T03:22:52;19.74;81.34
68098;DHT22;54886;47.036;15.466;2023-09-19T03:25:17;19.74;80.14
68098;DHT22;54886;47.036;15.466;2023-09-19T03:27:44;19.74;79.05
68098;DHT22;54886;47.036;15.466;2023-09-19T03:30:10;19.72;80.34
68098;DHT22;54886;47.036;15.466;2023-09-19T03:32:47;19.71;77.90
68098;DHT22;54886;47.036;15.466;2023-09-19T03:35:15;19.68;77.44
68098;DHT22;54886;47.036;15.466;2023-09-19T03:37:42;19.71;77.55
68098;DHT22;54886;47.036;15.466;2023-09-19T03:40:09;19.68;76.64
68098;DHT22;54886;47.036;15.466;2023-09-19T03:42:37;19.69;76.08
68098;DHT22;54886;47.036;15.466;2023-09-19T03:45:03;19.71;77.27
68098;DHT22;54886;47.036;15.466;2023-09-19T03:47:28;19.64;76.48
68098;DHT22;54886;47.036;15.466;2023-09-19T03:49:54;19.61;76.05
68098;DHT22;54886;47.036;15.466;2023-09-19T03:52:19;19.58;77.51
68098;DHT22;54886;47.036;15.466;2023-09-19T03:54:44;19.57;77.91
68098;DHT22;54886;47.036;15.466;2023-09-19T03:57:10;19.59;78.52
68098;DHT22;54886;47.036;15.466;2023-09-19T03:59:37;19.57;78.29
68098;DHT22;54886;47.036;15.466;2023-09-19T04:02:03;19.58;78.66
68098;DHT22;54886;47.036;15.466;2023-09-19T04:04:29;19.55;78.48
68098;DHT22;54886;47.036;15.466;2023-09-19T04:06:55;19.51;79.57
68098;DHT22;54886;47.036;15.466;2023-09-19T04:09:20;19.51;79.18
68098;DHT22;54886;47.036;15.466;2023-09-19T04:11:45;19.46;79.98
68098;DHT22;54886;47.036;15.466;2023-09-19T04:14:11;19.44;79.34
68098;DHT22;54886;47.036;15.466;2023-09-19T04:16:36;19.44;78.69
68098;DHT22;54886;47.036;15.466;2023-09-19T04:19:02;19.34;79.69
68098;DHT22;54886;47.036;15.466;2023-09-19T04:21:28;19.37;79.39
68098;DHT22;54886;47.036;15.466;2023-09-19T04:23:54;19.38;79.65
68098;DHT22;54886;47.036;15.466;2023-09-19T04:26:19;19.41;79.52
68098;DHT22;54886;47.036;15.466;2023-09-19T04:28:45;19.43;79.15
68098;DHT22;54886;47.036;15.466;2023-09-19T04:31:11;19.41;79.31
68098;DHT22;54886;47.036;15.466;2023-09-19T04:33:37;19.41;79.63
68098;DHT22;54886;47.036;15.466;2023-09-19T04:36:02;19.46;79.51
68098;DHT22;54886;47.036;15.466;2023-09-19T04:38:30;19.43;79.20
68098;DHT22;54886;47.036;15.466;2023-09-19T04:40:59;19.43;79.67
68098;DHT22;54886;47.036;15.466;2023-09-19T04:43:25;19.38;80.50
68098;DHT22;54886;47.036;15.466;2023-09-19T04:45:50;19.35;80.86
68098;DHT22;54886;47.036;15.466;2023-09-19T04:48:19;19.37;81.03
68098;DHT22;54886;47.036;15.466;2023-09-19T04:50:44;19.27;81.61
68098;DHT22;54886;47.036;15.466;2023-09-19T04:53:10;19.28;81.24
68098;DHT22;54886;47.036;15.466;2023-09-19T04:55:35;19.23;81.33
68098;DHT22;54886;47.036;15.466;2023-09-19T04:58:01;19.20;81.12
68098;DHT22;54886;47.036;15.466;2023-09-19T05:00:27;19.14;81.74
68098;DHT22;54886;47.036;15.466;2023-09-19T05:02:56;19.19;80.61
68098;DHT22;54886;47.036;15.466;2023-09-19T05:05:22;19.22;80.34
68098;DHT22;54886;47.036;15.466;2023-09-19T05:07:49;19.16;81.94
68098;DHT22;54886;47.036;15.466;2023-09-19T05:10:14;19.20;80.78
68098;DHT22;54886;47.036;15.466;2023-09-19T05:12:41;19.23;80.31
68098;DHT22;54886;47.036;15.466;2023-09-19T05:15:07;19.20;81.06
68098;DHT22;54886;47.036;15.466;2023-09-19T05:17:33;19.22;80.72
68098;DHT22;54886;47.036;15.466;2023-09-19T05:19:59;19.20;80.95
68098;DHT22;54886;47.036;15.466;2023-09-19T05:23:07;19.22;80.77
68098;DHT22;54886;47.036;15.466;2023-09-19T05:25:38;19.24;80.97
68098;DHT22;54886;47.036;15.466;2023-09-19T05:28:09;19.17;82.05
68098;DHT22;54886;47.036;15.466;2023-09-19T05:30:37;19.13;81.77
68098;DHT22;54886;47.036;15.466;2023-09-19T05:33:04;19.16;80.99
68098;DHT22;54886;47.036;15.466;2023-09-19T05:35:30;19.22;81.59
68098;DHT22;54886;47.036;15.466;2023-09-19T05:37:56;19.12;82.59
68098;DHT22;54886;47.036;15.466;2023-09-19T05:40:24;19.14;81.94
68098;DHT22;54886;47.036;15.466;2023-09-19T05:42:50;19.12;82.45
68098;DHT22;54886;47.036;15.466;2023-09-19T05:45:16;19.09;82.53
68098;DHT22;54886;47.036;15.466;2023-09-19T05:47:47;19.09;82.61
68098;DHT22;54886;47.036;15.466;2023-09-19T05:50:13;19.06;81.83
68098;DHT22;54886;47.036;15.466;2023-09-19T05:52:40;19.06;82.56
68098;DHT22;54886;47.036;15.466;2023-09-19T05:55:06;19.12;81.86
68098;DHT22;54886;47.036;15.466;2023-09-19T05:57:36;19.12;80.67
68098;DHT22;54886;47.036;15.466;2023-09-19T06:00:01;19.10;82.02
68098;DHT22;54886;47.036;15.466;2023-09-19T06:02:27;19.09;83.16
68098;DHT22;54886;47.036;15.466;2023-09-19T06:04:55;19.10;82.54
68098;DHT22;54886;47.036;15.466;2023-09-19T06:07:21;19.12;82.37
68098;DHT22;54886;47.036;15.466;2023-09-19T06:09:53;19.12;82.69
68098;DHT22;54886;47.036;15.466;2023-09-19T06:12:21;19.14;82.12
68098;DHT22;54886;47.036;15.466;2023-09-19T06:14:46;19.12;82.77
68098;DHT22;54886;47.036;15.466;2023-09-19T06:17:13;19.09;82.90
68098;DHT22;54886;47.036;15.466;2023-09-19T06:19:39;19.16;81.35
68098;DHT22;54886;47.036;15.466;2023-09-19T06:22:04;19.17;81.50
68098;DHT22;54886;47.036;15.466;2023-09-19T06:24:30;19.19;82.32
68098;DHT22;54886;47.036;15.466;2023-09-19T06:26:55;19.22;81.67
68098;DHT22;54886;47.036;15.466;2023-09-19T06:29:21;19.20;82.33
68098;DHT22;54886;47.036;15.466;2023-09-19T06:31:48;19.23;82.07
68098;DHT22;54886;47.036;15.466;2023-09-19T06:34:13;19.23;81.97
68098;DHT22;54886;47.036;15.466;2023-09-19T06:36:43;19.24;82.29
68098;DHT22;54886;47.036;15.466;2023-09-19T06:39:10;19.24;82.85
68098;DHT22;54886;47.036;15.466;2023-09-19T06:41:37;19.26;82.73
68098;DHT22;54886;47.036;15.466;2023-09-19T06:44:04;19.28;81.67
68098;DHT22;54886;47.036;15.466;2023-09-19T06:46:30;19.27;81.47
68098;DHT22;54886;47.036;15.466;2023-09-19T06:48:58;19.31;81.99
68098;DHT22;54886;47.036;15.466;2023-09-19T06:51:25;19.34;82.03
68098;DHT22;54886;47.036;15.466;2023-09-19T06:53:50;19.38;81.27
68098;DHT22;54886;47.036;15.466;2023-09-19T06:56:19;19.35;82.11
68098;DHT22;54886;47.036;15.466;2023-09-19T06:58:50;19.41;81.77
68098;DHT22;54886;47.036;15.466;2023-09-19T07:01:15;19.43;82.46
68098;DHT22;54886;47.036;15.466;2023-09-19T07:03:41;19.43;82.44
68098;DHT22;54886;47.036;15.466;2023-09-19T07:06:06;19.43;81.27
68098;DHT22;54886;47.036;15.466;2023-09-19T07:08:32;19.43;81.13
68098;DHT22;54886;47.036;15.466;2023-09-19T07:10:57;19.46;81.09
68098;DHT22;54886;47.036;15.466;2023-09-19T07:13:23;19.46;80.00
68098;DHT22;54886;47.036;15.466;2023-09-19T07:15:49;19.46;81.42
68098;DHT22;54886;47.036;15.466;2023-09-19T07:18:16;19.46;81.47
68098;DHT22;54886;47.036;15.466;2023-09-19T07:20:42;19.47;80.40
68098;DHT22;54886;47.036;15.466;2023-09-19T07:23:20;19.47;81.72
68098;DHT22;54886;47.036;15.466;2023-09-19T07:25:47;19.47;82.03
68098;DHT22;54886;47.036;15.466;2023-09-19T07:28:13;19.47;82.39
68098;DHT22;54886;47.036;15.466;2023-09-19T07:30:39;19.50;81.41
68098;DHT22;54886;47.036;15.466;2023-09-19T07:33:05;19.51;82.08
68098;DHT22;54886;47.036;15.466;2023-09-19T07:35:31;19.54;81.60
68098;DHT22;54886;47.036;15.466;2023-09-19T07:37:57;19.55;81.98
68098;DHT22;54886;47.036;15.466;2023-09-19T07:40:23;19.57;81.28
68098;DHT22;54886;47.036;15.466;2023-09-19T07:42:49;19.58;81.57
68098;DHT22;54886;47.036;15.466;2023-09-19T07:45:15;19.58;81.48
68098;DHT22;54886;47.036;15.466;2023-09-19T07:47:45;19.59;81.44
68098;DHT22;54886;47.036;15.466;2023-09-19T07:50:12;19.62;81.59
68098;DHT22;54886;47.036;15.466;2023-09-19T07:52:37;19.59;81.95
68098;DHT22;54886;47.036;15.466;2023-09-19T07:55:05;19.64;81.56
68098;DHT22;54886;47.036;15.466;2023-09-19T07:57:34;19.64;81.97
68098;DHT22;54886;47.036;15.466;2023-09-19T08:00:00;19.69;81.39
68098;DHT22;54886;47.036;15.466;2023-09-19T08:02:25;19.75;80.25
68098;DHT22;54886;47.036;15.466;2023-09-19T08:04:51;19.81;81.29
68098;DHT22;54886;47.036;15.466;2023-09-19T08:07:17;19.79;81.30
68098;DHT22;54886;47.036;15.466;2023-09-19T08:09:43;19.81;81.00
68098;DHT22;54886;47.036;15.466;2023-09-19T08:12:13;19.85;80.88
68098;DHT22;54886;47.036;15.466;2023-09-19T08:14:40;19.89;80.91
68098;DHT22;54886;47.036;15.466;2023-09-19T08:17:06;19.96;80.66
68098;DHT22;54886;47.036;15.466;2023-09-19T08:19:33;20.06;80.36
68098;DHT22;54886;47.036;15.466;2023-09-19T08:21:58;20.10;79.95
68098;DHT22;54886;47.036;15.466;2023-09-19T08:24:28;20.10;79.64
68098;DHT22;54886;47.036;15.466;2023-09-19T08:26:57;20.14;79.11
68098;DHT22;54886;47.036;15.466;2023-09-19T08:29:26;20.16;78.89
68098;DHT22;54886;47.036;15.466;2023-09-19T08:31:54;20.26;79.01
68098;DHT22;54886;47.036;15.466;2023-09-19T08:34:21;20.34;79.83
68098;DHT22;54886;47.036;15.466;2023-09-19T08:36:46;20.37;79.55
68098;DHT22;54886;47.036;15.466;2023-09-19T08:39:13;20.39;79.29
68098;DHT22;54886;47.036;15.466;2023-09-19T08:41:39;20.44;79.31
68098;DHT22;54886;47.036;15.466;2023-09-19T08:44:05;20.45;78.78
68098;DHT22;54886;47.036;15.466;2023-09-19T08:46:30;20.48;78.65
68098;DHT22;54886;47.036;15.466;2023-09-19T08:51:27;20.57;77.52
68098;DHT22;54886;47.036;15.466;2023-09-19T08:54:07;20.64;77.75
68098;DHT22;54886;47.036;15.466;2023-09-19T08:56:33;20.68;77.60
68098;DHT22;54886;47.036;15.466;2023-09-19T08:59:06;20.69;77.41
68098;DHT22;54886;47.036;15.466;2023-09-19T09:01:37;20.74;77.52
68098;DHT22;54886;47.036;15.466;2023-09-19T09:04:08;20.79;77.52
68098;DHT22;54886;47.036;15.466;2023-09-19T09:06:34;20.86;77.49
68098;DHT22;54886;47.036;15.466;2023-09-19T09:09:01;20.86;76.11
68098;DHT22;54886;47.036;15.466;2023-09-19T09:11:28;20.89;75.50
68098;DHT22;54886;47.036;15.466;2023-09-19T09:13:54;20.89;76.18
68098;DHT22;54886;47.036;15.466;2023-09-19T09:16:19;20.96;75.76
68098;DHT22;54886;47.036;15.466;2023-09-19T09:18:45;21.02;76.10
68098;DHT22;54886;47.036;15.466;2023-09-19T09:21:12;21.10;76.10
68098;DHT22;54886;47.036;15.466;2023-09-19T09:23:38;21.13;75.82
68098;DHT22;54886;47.036;15.466;2023-09-19T09:26:04;21.14;74.62
68098;DHT22;54886;47.036;15.466;2023-09-19T09:28:32;21.18;74.72
68098;DHT22;54886;47.036;15.466;2023-09-19T09:30:58;21.20;75.42
68098;DHT22;54886;47.036;15.466;2023-09-19T09:33:24;21.20;75.61
68098;DHT22;54886;47.036;15.466;2023-09-19T09:35:50;21.27;75.89
68098;DHT22;54886;47.036;15.466;2023-09-19T09:38:20;21.33;76.22
68098;DHT22;54886;47.036;15.466;2023-09-19T09:40:50;21.36;75.54
68098;DHT22;54886;47.036;15.466;2023-09-19T09:43:37;21.40;74.87
68098;DHT22;54886;47.036;15.466;2023-09-19T09:46:08;21.41;74.91
68098;DHT22;54886;47.036;15.466;2023-09-19T09:48:47;21.39;74.90
68098;DHT22;54886;47.036;15.466;2023-09-19T09:51:32;21.39;74.34
68098;DHT22;54886;47.036;15.466;2023-09-19T09:54:14;21.41;74.27
68098;DHT22;54886;47.036;15.466;2023-09-19T09:56:53;21.39;74.58
68098;DHT22;54886;47.036;15.466;2023-09-19T09:59:20;21.41;74.64
68098;DHT22;54886;47.036;15.466;2023-09-19T10:01:49;21.43;74.79
68098;DHT22;54886;47.036;15.466;2023-09-19T10:04:28;21.43;74.47
68098;DHT22;54886;47.036;15.466;2023-09-19T10:07:01;21.48;74.72
68098;DHT22;54886;47.036;15.466;2023-09-19T10:09:30;21.51;74.63
68098;DHT22;54886;47.036;15.466;2023-09-19T10:12:12;21.53;74.84
68098;DHT22;54886;47.036;15.466;2023-09-19T10:14:39;21.51;74.85
68098;DHT22;54886;47.036;15.466;2023-09-19T10:17:10;21.54;75.11
68098;DHT22;54886;47.036;15.466;2023-09-19T10:22:46;21.73;74.86
68098;DHT22;54886;47.036;15.466;2023-09-19T10:25:25;21.79;73.09
68098;DHT22;54886;47.036;15.466;2023-09-19T10:27:54;21.85;72.75
68098;DHT22;54886;47.036;15.466;2023-09-19T10:30:22;21.85;72.15
68098;DHT22;54886;47.036;15.466;2023-09-19T10:32:59;21.88;69.19
68098;DHT22;54886;47.036;15.466;2023-09-19T10:35:25;21.92;69.56
68098;DHT22;54886;47.036;15.466;2023-09-19T10:37:51;21.96;68.88
68098;DHT22;54886;47.036;15.466;2023-09-19T10:40:20;22.01;70.32
68098;DHT22;54886;47.036;15.466;2023-09-19T10:42:48;22.02;70.02
68098;DHT22;54886;47.036;15.466;2023-09-19T10:45:16;21.99;70.86
68098;DHT22;54886;47.036;15.466;2023-09-19T10:47:45;22.03;70.41
68098;DHT22;54886;47.036;15.466;2023-09-19T10:50:19;22.09;71.24
68098;DHT22;54886;47.036;15.466;2023-09-19T10:52:47;22.12;71.02
68098;DHT22;54886;47.036;15.466;2023-09-19T10:55:19;22.17;70.73
68098;DHT22;54886;47.036;15.466;2023-09-19T10:57:46;22.26;70.75
68098;DHT22;54886;47.036;15.466;2023-09-19T11:00:12;22.26;70.60
68098;DHT22;54886;47.036;15.466;2023-09-19T11:05:40;22.33;70.36
68098;DHT22;54886;47.036;15.466;2023-09-19T11:08:08;22.39;69.31
68098;DHT22;54886;47.036;15.466;2023-09-19T11:10:50;22.40;69.84
68098;DHT22;54886;47.036;15.466;2023-09-19T11:13:27;22.41;68.36
68098;DHT22;54886;47.036;15.466;2023-09-19T11:18:53;22.50;67.63
68098;DHT22;54886;47.036;15.466;2023-09-19T11:26:48;22.58;67.86
68098;DHT22;54886;47.036;15.466;2023-09-19T11:29:29;22.60;67.89
68098;DHT22;54886;47.036;15.466;2023-09-19T11:31:57;22.64;68.09
68098;DHT22;54886;47.036;15.466;2023-09-19T11:40:09;22.64;67.57
68098;DHT22;54886;47.036;15.466;2023-09-19T11:42:42;22.68;68.10
68098;DHT22;54886;47.036;15.466;2023-09-19T11:48:23;22.79;64.81
68098;DHT22;54886;47.036;15.466;2023-09-19T11:50:51;22.83;66.30
68098;DHT22;54886;47.036;15.466;2023-09-19T11:53:17;22.85;66.67
68098;DHT22;54886;47.036;15.466;2023-09-19T11:55:45;22.91;66.93
68098;DHT22;54886;47.036;15.466;2023-09-19T11:58:11;22.91;65.70
68098;DHT22;54886;47.036;15.466;2023-09-19T12:00:39;22.94;64.73
68098;DHT22;54886;47.036;15.466;2023-09-19T12:03:11;22.99;63.03
68098;DHT22;54886;47.036;15.466;2023-09-19T12:05:39;22.99;64.93
68098;DHT22;54886;47.036;15.466;2023-09-19T12:08:04;22.99;64.29
68098;DHT22;54886;47.036;15.466;2023-09-19T12:10:44;23.02;63.18
68098;DHT22;54886;47.036;15.466;2023-09-19T12:13:10;22.96;62.93
68098;DHT22;54886;47.036;15.466;2023-09-19T12:15:37;22.95;62.41
68098;DHT22;54886;47.036;15.466;2023-09-19T12:18:05;22.95;61.80
68098;DHT22;54886;47.036;15.466;2023-09-19T12:20:44;22.92;62.16
68098;DHT22;54886;47.036;15.466;2023-09-19T12:23:15;22.96;62.02
68098;DHT22;54886;47.036;15.466;2023-09-19T12:25:42;23.02;61.06
68098;DHT22;54886;47.036;15.466;2023-09-19T12:28:13;23.02;60.57
68098;DHT22;54886;47.036;15.466;2023-09-19T12:30:39;23.02;59.91
68098;DHT22;54886;47.036;15.466;2023-09-19T12:33:15;23.03;60.61
68098;DHT22;54886;47.036;15.466;2023-09-19T12:35:41;23.03;60.89
68098;DHT22;54886;47.036;15.466;2023-09-19T12:38:08;23.09;61.57
68098;DHT22;54886;47.036;15.466;2023-09-19T12:40:35;23.06;59.42
68098;DHT22;54886;47.036;15.466;2023-09-19T12:43:03;23.09;59.64
68098;DHT22;54886;47.036;15.466;2023-09-19T12:45:30;23.12;59.18
68098;DHT22;54886;47.036;15.466;2023-09-19T12:48:24;23.12;59.15
68098;DHT22;54886;47.036;15.466;2023-09-19T12:53:35;23.20;57.68
68098;DHT22;54886;47.036;15.466;2023-09-19T12:56:05;23.16;57.36
68098;DHT22;54886;47.036;15.466;2023-09-19T12:58:34;23.13;58.44
68098;DHT22;54886;47.036;15.466;2023-09-19T13:01:00;23.11;57.69
68098;DHT22;54886;47.036;15.466;2023-09-19T13:03:27;23.05;59.46
68098;DHT22;54886;47.036;15.466;2023-09-19T13:06:02;23.05;58.90
68098;DHT22;54886;47.036;15.466;2023-09-19T13:08:37;23.11;59.04
68098;DHT22;54886;47.036;15.466;2023-09-19T13:11:15;23.19;58.88
68098;DHT22;54886;47.036;15.466;2023-09-19T13:13:49;23.29;59.19
68098;DHT22;54886;47.036;15.466;2023-09-19T13:16:16;23.39;57.55
68098;DHT22;54886;47.036;15.466;2023-09-19T13:18:46;23.49;57.31
68098;DHT22;54886;47.036;15.466;2023-09-19T13:21:12;23.53;57.96
68098;DHT22;54886;47.036;15.466;2023-09-19T13:23:48;23.58;59.79
68098;DHT22;54886;47.036;15.466;2023-09-19T13:26:14;23.61;59.20
68098;DHT22;54886;47.036;15.466;2023-09-19T13:28:40;23.64;58.27
68098;DHT22;54886;47.036;15.466;2023-09-19T13:31:05;23.61;58.85
68098;DHT22;54886;47.036;15.466;2023-09-19T13:33:31;23.61;59.07
68098;DHT22;54886;47.036;15.466;2023-09-19T13:35:57;23.65;58.99
68098;DHT22;54886;47.036;15.466;2023-09-19T13:38:23;23.67;58.50
68098;DHT22;54886;47.036;15.466;2023-09-19T13:40:49;23.64;59.64
68098;DHT22;54886;47.036;15.466;2023-09-19T13:43:14;23.63;59.95
68098;DHT22;54886;47.036;15.466;2023-09-19T13:45:41;23.68;59.65
68098;DHT22;54886;47.036;15.466;2023-09-19T13:48:09;23.71;60.40
68098;DHT22;54886;47.036;15.466;2023-09-19T13:50:37;23.70;58.75
68098;DHT22;54886;47.036;15.466;2023-09-19T13:53:10;23.78;58.89
68098;DHT22;54886;47.036;15.466;2023-09-19T13:55:35;23.79;59.46
68098;DHT22;54886;47.036;15.466;2023-09-19T13:58:03;23.81;58.41
68098;DHT22;54886;47.036;15.466;2023-09-19T14:00:32;23.81;60.28
68098;DHT22;54886;47.036;15.466;2023-09-19T14:03:00;23.85;58.29
68098;DHT22;54886;47.036;15.466;2023-09-19T14:05:26;23.86;59.75
68098;DHT22;54886;47.036;15.466;2023-09-19T14:07:53;23.89;59.53
68098;DHT22;54886;47.036;15.466;2023-09-19T14:10:20;23.92;59.46
68098;DHT22;54886;47.036;15.466;2023-09-19T14:12:45;24.00;59.41
68098;DHT22;54886;47.036;15.466;2023-09-19T14:15:11;24.00;59.75
68098;DHT22;54886;47.036;15.466;2023-09-19T14:17:38;24.06;58.86
68098;DHT22;54886;47.036;15.466;2023-09-19T14:20:03;24.11;59.34
68098;DHT22;54886;47.036;15.466;2023-09-19T14:22:31;24.12;59.24
68098;DHT22;54886;47.036;15.466;2023-09-19T14:24:57;24.16;58.81
68098;DHT22;54886;47.036;15.466;2023-09-19T14:27:24;24.18;57.81
68098;DHT22;54886;47.036;15.466;2023-09-19T14:29:50;24.18;58.47
68098;DHT22;54886;47.036;15.466;2023-09-19T14:32:16;24.15;58.15
68098;DHT22;54886;47.036;15.466;2023-09-19T14:34:43;24.16;57.79
68098;DHT22;54886;47.036;15.466;2023-09-19T14:37:09;24.15;57.56
68098;DHT22;54886;47.036;15.466;2023-09-19T14:39:36;24.13;58.11
68098;DHT22;54886;47.036;15.466;2023-09-19T14:42:04;24.11;58.73
68098;DHT22;54886;47.036;15.466;2023-09-19T14:44:29;24.12;58.37
68098;DHT22;54886;47.036;15.466;2023-09-19T14:46:55;24.11;58.05
68098;DHT22;54886;47.036;15.466;2023-09-19T14:49:20;24.09;57.94
68098;DHT22;54886;47.036;15.466;2023-09-19T14:51:46;24.12;58.85
68098;DHT22;54886;47.036;15.466;2023-09-19T14:54:13;24.12;58.87
68098;DHT22;54886;47.036;15.466;2023-09-19T14:56:39;24.11;58.99
68098;DHT22;54886;47.036;15.466;2023-09-19T14:59:05;24.13;58.60
68098;DHT22;54886;47.036;15.466;2023-09-19T15:01:32;24.15;58.23
68098;DHT22;54886;47.036;15.466;2023-09-19T15:03:57;24.15;58.53
68098;DHT22;54886;47.036;15.466;2023-09-19T15:06:22;24.15;58.34
68098;DHT22;54886;47.036;15.466;2023-09-19T15:08:49;24.15;58.34
68098;DHT22;54886;47.036;15.466;2023-09-19T15:11:18;24.18;58.50
68098;DHT22;54886;47.036;15.466;2023-09-19T15:13:45;24.11;57.44
68098;DHT22;54886;47.036;15.466;2023-09-19T15:16:11;24.09;58.25
68098;DHT22;54886;47.036;15.466;2023-09-19T15:18:38;24.13;58.76
68098;DHT22;54886;47.036;15.466;2023-09-19T15:21:05;24.09;58.89
68098;DHT22;54886;47.036;15.466;2023-09-19T15:23:34;24.05;59.39
68098;DHT22;54886;47.036;15.466;2023-09-19T15:26:02;24.04;59.76
68098;DHT22;54886;47.036;15.466;2023-09-19T15:28:28;24.04;59.88
68098;DHT22;54886;47.036;15.466;2023-09-19T15:31:02;24.00;59.28
68098;DHT22;54886;47.036;15.466;2023-09-19T15:33:29;23.95;59.53
68098;DHT22;54886;47.036;15.466;2023-09-19T15:36:09;23.91;60.11
68098;DHT22;54886;47.036;15.466;2023-09-19T15:41:18;23.88;59.84
68098;DHT22;54886;47.036;15.466;2023-09-19T15:43:43;23.88;60.07
68098;DHT22;54886;47.036;15.466;2023-09-19T15:46:09;23.79;60.36
68098;DHT22;54886;47.036;15.466;2023-09-19T15:48:34;23.81;60.30
68098;DHT22;54886;47.036;15.466;2023-09-19T15:51:03;23.73;60.72
68098;DHT22;54886;47.036;15.466;2023-09-19T15:53:42;23.71;60.35
68098;DHT22;54886;47.036;15.466;2023-09-19T15:56:08;23.67;61.13
68098;DHT22;54886;47.036;15.466;2023-09-19T15:58:35;23.63;61.66
68098;DHT22;54886;47.036;15.466;2023-09-19T16:01:07;23.56;61.22
68098;DHT22;54886;47.036;15.466;2023-09-19T16:03:39;23.56;62.27
68098;DHT22;54886;47.036;15.466;2023-09-19T16:06:13;23.54;62.86
68098;DHT22;54886;47.036;15.466;2023-09-19T16:08:49;23.49;62.80